メインページ
METAR-TAF:

METAR-TAF

空港 :

バンクーバー国際空港

バンクーバー, ブリティッシュコロンビア州, カナダ

緯度: 49-11N, 経度: 123-10W, 海抜: 3m

現時点の気象観測

当レポートは42分前の01:00(UTC)に作成
西の風 8kt
気温 15°C
湿度 77%
気圧 1025 hPa
視程: 48.3km
高度3500ftの雲はほとんどない
高度23000ftの雲はほとんどない

METAR: CYVR 250100Z 28008KT 30SM FEW035 FEW230 15/11 A3027 RMK SC1CI1 SC TR CONTRAILS SLP251

時間: 18:42 (01:42 UTC)

予報

当レポートは2時間4分前の23:38(UTC)に作成
予報は25日の 00時(UTC)から 26日の 06時(UTC)まで有効
西の風 10kt
視程: 10km
高度5000ftの雲はほとんどない
25日の 0900時(UTC)から
変向風 3kt
視程: 10km
高度1000ftの雲は散在している
25日の 1700時(UTC)から
西/北西の風 7kt
視程: 10km
高度5000ftの雲はほとんどない
25日の 18時(UTC)から 25日の 20時(UTC)まで徐々に
西/北西の風 12kt

TAF: CYVR 242338Z 2500/2606 28010KT P6SM FEW050 FM250900 VRB03KT P6SM SCT010 FM251700 29007KT P6SM FEW050 BECMG 2518/2520 29012KT RMK NXT FCST BY 250300Z

4,000以上の空港の気象観測と天気予報(METAR報とTAF報)

利用可能な観測所は地図上に黄色い丸と赤い丸で示す。

丸の上にカーソルを重ねると観測所名を参照できる。

次にクリックすると気象観測と天気予報を参照できる。

マップの切り替え:黒色「×」印の緑ボタンをクリックして拡大、「-」印の緑ボタンをクリックして縮小、緑色の三角印をクリックして隣りの地図に切り替え


METAR-TAF: